Time;durP1;ratioP1;P1;durP2;ratioP2;P2;SDS_P1;SDS_P2;PMS_P1;PMS_P2;Temp;Humidity;BMP_temperature;BMP_pressure;BME280_temperature;BME280_humidity;BME280_pressure;Samples;Min_cycle;Max_cycle;Signal;HPM_P1;HPM_P2
2021/03/18 00:01:11;;;;;;;6.05;5.03;;;3.00;99.90;;;;;;5070348;28;20020;-50
2021/03/18 00:03:38;;;;;;;9.68;4.40;;;3.00;99.90;;;;;;5072231;28;20024;-51
2021/03/18 00:06:05;;;;;;;5.50;3.88;;;3.00;99.90;;;;;;5090408;28;20040;-47
2021/03/18 00:08:32;;;;;;;9.85;4.45;;;2.90;99.90;;;;;;5088816;28;20154;-46
2021/03/18 00:10:59;;;;;;;10.93;5.20;;;2.90;99.90;;;;;;5073668;28;20044;-50
2021/03/18 00:13:26;;;;;;;10.45;4.60;;;2.90;99.90;;;;;;5074807;28;20485;-48
2021/03/18 00:15:52;;;;;;;6.55;4.72;;;2.80;99.90;;;;;;5071245;28;20399;-51
2021/03/18 00:18:20;;;;;;;7.20;4.90;;;2.70;99.90;;;;;;5070379;28;20044;-51
2021/03/18 00:20:46;;;;;;;7.20;4.28;;;2.70;99.90;;;;;;5069719;28;20029;-52
2021/03/18 00:23:12;;;;;;;8.40;4.70;;;2.60;99.90;;;;;;5074096;28;20025;-50
2021/03/18 00:25:38;;;;;;;6.15;4.55;;;2.60;99.90;;;;;;5082549;28;20160;-46
2021/03/18 00:28:04;;;;;;;8.38;4.30;;;2.50;99.90;;;;;;5090484;28;20032;-49
2021/03/18 00:30:30;;;;;;;7.13;3.55;;;2.50;99.90;;;;;;5090554;28;20441;-49
2021/03/18 00:32:56;;;;;;;5.45;4.22;;;2.40;99.90;;;;;;5089796;28;20034;-47
2021/03/18 00:35:22;;;;;;;5.80;3.88;;;2.40;99.90;;;;;;5090367;28;20028;-50
2021/03/18 00:37:50;;;;;;;6.85;4.07;;;2.40;99.90;;;;;;5090522;28;20028;-51
2021/03/18 00:40:22;;;;;;;9.05;4.70;;;2.30;99.90;;;;;;5089899;28;20076;-50
2021/03/18 00:42:59;;;;;;;7.90;4.50;;;2.30;99.90;;;;;;5069367;28;20066;-48
2021/03/18 00:45:27;;;;;;;10.70;4.53;;;2.30;99.90;;;;;;5070067;28;20373;-49
2021/03/18 00:47:53;;;;;;;8.63;5.22;;;2.30;99.90;;;;;;5070112;28;20483;-56
2021/03/18 00:50:38;;;;;;;10.00;4.50;;;2.40;99.90;;;;;;5071411;28;20036;-51
2021/03/18 00:53:05;;;;;;;14.43;4.72;;;2.40;99.90;;;;;;5071935;28;20107;-50
2021/03/18 00:55:31;;;;;;;7.45;4.18;;;2.40;99.90;;;;;;5072187;28;20547;-50
2021/03/18 00:57:57;;;;;;;10.25;4.80;;;2.40;99.90;;;;;;5072219;28;20032;-50
2021/03/18 01:00:26;;;;;;;8.50;4.85;;;2.30;99.90;;;;;;5072632;28;20052;-53
2021/03/18 01:02:52;;;;;;;5.50;4.18;;;2.20;99.90;;;;;;5071871;28;20052;-54
2021/03/18 01:05:29;;;;;;;6.43;4.68;;;2.20;99.90;;;;;;5072322;28;20035;-51
2021/03/18 01:07:55;;;;;;;6.50;4.68;;;2.10;99.90;;;;;;5071758;28;20017;-51
2021/03/18 01:10:21;;;;;;;6.20;4.57;;;2.00;99.90;;;;;;5072264;28;20497;-54
2021/03/18 01:12:46;;;;;;;9.25;3.92;;;1.90;99.90;;;;;;5071839;28;20025;-55
2021/03/18 01:15:14;;;;;;;7.85;5.00;;;1.90;99.90;;;;;;5072171;28;20021;-53
2021/03/18 01:17:40;;;;;;;5.90;5.03;;;1.90;99.90;;;;;;5072073;28;20025;-51
2021/03/18 01:20:11;;;;;;;8.80;5.05;;;1.80;99.90;;;;;;5072193;28;20019;-50
2021/03/18 01:22:36;;;;;;;5.32;4.10;;;1.80;99.90;;;;;;5071683;28;20111;-54
2021/03/18 01:25:03;;;;;;;6.82;4.30;;;1.80;99.90;;;;;;5072005;28;20099;-53
2021/03/18 01:27:28;;;;;;;8.13;4.57;;;1.80;99.90;;;;;;5071667;28;20021;-54
2021/03/18 01:29:54;;;;;;;13.20;5.65;;;1.70;99.90;;;;;;5072059;28;20070;-54
2021/03/18 01:32:19;;;;;;;9.10;4.38;;;1.70;99.90;;;;;;5071856;28;20028;-52
2021/03/18 01:34:45;;;;;;;6.72;4.55;;;1.70;99.90;;;;;;5071442;28;20025;-51
2021/03/18 01:37:10;;;;;;;6.68;4.70;;;1.70;99.90;;;;;;5071772;28;20036;-55
2021/03/18 01:39:36;;;;;;;8.20;4.78;;;1.70;99.90;;;;;;5072788;28;20027;-51
2021/03/18 01:42:02;;;;;;;6.93;4.45;;;1.60;99.90;;;;;;5071570;28;20394;-50
2021/03/18 01:44:27;;;;;;;8.10;4.47;;;1.60;99.90;;;;;;5071402;28;20385;-53
2021/03/18 01:46:53;;;;;;;14.10;5.18;;;1.50;99.90;;;;;;5071482;28;20044;-51
2021/03/18 01:49:19;;;;;;;6.07;4.78;;;1.60;99.90;;;;;;5071495;28;20020;-51
2021/03/18 01:51:45;;;;;;;7.22;4.43;;;1.50;99.90;;;;;;5071230;28;20478;-52
2021/03/18 01:54:11;;;;;;;6.95;5.03;;;1.40;99.90;;;;;;5071081;28;20039;-56
2021/03/18 01:56:37;;;;;;;9.27;4.55;;;1.40;99.90;;;;;;5071176;28;20028;-54
2021/03/18 01:59:03;;;;;;;8.10;4.70;;;1.40;99.90;;;;;;5071220;28;20423;-53
2021/03/18 02:01:29;;;;;;;10.02;4.57;;;1.50;99.90;;;;;;5071244;28;20111;-53
2021/03/18 02:03:55;;;;;;;12.00;5.43;;;1.50;99.90;;;;;;5070707;28;20024;-53
2021/03/18 02:06:21;;;;;;;6.22;4.30;;;1.50;99.90;;;;;;5070741;28;20040;-51
2021/03/18 02:08:46;;;;;;;10.75;4.70;;;1.40;99.90;;;;;;5070943;28;20027;-50
2021/03/18 02:11:12;;;;;;;7.05;4.50;;;1.40;99.90;;;;;;5070890;28;20028;-52
2021/03/18 02:13:37;;;;;;;6.28;3.80;;;1.40;99.90;;;;;;5070637;28;20394;-53
2021/03/18 02:16:07;;;;;;;7.72;4.40;;;1.40;99.90;;;;;;5070737;28;20031;-51
2021/03/18 02:18:54;;;;;;;10.43;4.65;;;1.40;99.90;;;;;;5070800;28;20107;-52
2021/03/18 02:22:07;;;;;;;7.82;4.57;;;1.40;99.90;;;;;;5070065;28;20028;-53
2021/03/18 02:24:56;;;;;;;6.05;4.95;;;1.30;99.90;;;;;;5065116;28;20089;-49
2021/03/18 02:27:40;;;;;;;6.22;4.38;;;1.30;99.90;;;;;;5070719;28;20056;-51
2021/03/18 02:30:23;;;;;;;9.55;5.18;;;1.30;99.90;;;;;;5070774;28;20474;-54
2021/03/18 02:33:07;;;;;;;7.85;4.10;;;1.30;99.90;;;;;;5070562;28;20629;-54
2021/03/18 02:35:42;;;;;;;6.97;4.90;;;1.20;99.90;;;;;;5070642;28;20031;-50
2021/03/18 02:38:22;;;;;;;7.38;4.88;;;1.20;99.90;;;;;;5070687;28;20021;-49
2021/03/18 02:40:56;;;;;;;8.55;4.50;;;1.20;99.90;;;;;;5052326;28;20080;-53
2021/03/18 02:43:23;;;;;;;5.25;3.90;;;1.20;99.90;;;;;;5070306;28;20145;-50
2021/03/18 02:45:59;;;;;;;7.53;4.40;;;1.10;99.90;;;;;;5052436;28;20021;-55
2021/03/18 02:48:28;;;;;;;7.22;4.18;;;1.10;99.90;;;;;;5070791;28;20146;-51
2021/03/18 02:50:55;;;;;;;8.00;4.75;;;1.20;99.90;;;;;;5070747;28;20031;-53
2021/03/18 02:53:23;;;;;;;7.32;4.60;;;1.10;99.90;;;;;;5070443;28;20489;-51
2021/03/18 02:55:51;;;;;;;6.53;4.15;;;1.10;99.90;;;;;;5070519;28;20024;-51
2021/03/18 02:58:20;;;;;;;7.13;5.03;;;1.20;99.90;;;;;;5070479;28;20027;-52
2021/03/18 03:00:48;;;;;;;8.38;4.53;;;1.20;99.90;;;;;;5070546;28;20490;-52
2021/03/18 03:03:16;;;;;;;9.35;4.70;;;1.20;99.90;;;;;;5070453;28;20032;-49
2021/03/18 03:05:46;;;;;;;8.82;4.38;;;1.20;99.90;;;;;;5070453;28;20028;-54
2021/03/18 03:08:13;;;;;;;4.70;4.22;;;1.10;99.90;;;;;;5070562;28;20021;-52
2021/03/18 03:10:40;;;;;;;10.88;4.20;;;1.20;99.90;;;;;;5070472;28;20153;-51
2021/03/18 03:13:06;;;;;;;4.80;3.72;;;1.20;99.90;;;;;;5070159;28;20025;-50
2021/03/18 03:15:33;;;;;;;8.57;4.45;;;1.10;99.90;;;;;;5052264;28;20035;-50
2021/03/18 03:18:04;;;;;;;7.93;3.88;;;1.10;99.90;;;;;;5070336;28;20033;-52
2021/03/18 03:20:30;;;;;;;8.13;4.57;;;1.10;99.90;;;;;;5070639;28;20477;-53
2021/03/18 03:22:58;;;;;;;8.27;4.18;;;1.10;99.90;;;;;;5070521;28;20046;-52
2021/03/18 03:25:25;;;;;;;8.15;4.05;;;1.10;99.90;;;;;;5070033;28;20481;-52
2021/03/18 03:27:52;;;;;;;6.47;4.43;;;1.10;99.90;;;;;;5070112;28;20215;-54
2021/03/18 03:30:18;;;;;;;9.00;4.28;;;1.10;99.90;;;;;;5070119;28;20395;-50
2021/03/18 03:32:46;;;;;;;8.70;5.30;;;1.10;99.90;;;;;;5073261;28;20028;-52
2021/03/18 03:35:13;;;;;;;14.93;5.43;;;1.10;99.90;;;;;;5074140;28;20597;-51
2021/03/18 03:37:40;;;;;;;6.65;4.63;;;1.10;99.90;;;;;;5074160;28;20036;-50
2021/03/18 03:40:08;;;;;;;6.78;4.43;;;1.10;99.90;;;;;;5073697;28;20035;-51
2021/03/18 03:42:33;;;;;;;12.23;5.57;;;1.00;99.90;;;;;;5073560;28;20021;-53
2021/03/18 03:44:59;;;;;;;5.18;4.50;;;1.00;99.90;;;;;;5073757;28;20055;-53
2021/03/18 03:47:26;;;;;;;10.02;4.43;;;0.90;99.90;;;;;;5073939;28;20060;-55
2021/03/18 03:49:52;;;;;;;6.72;4.88;;;0.80;99.90;;;;;;5073883;28;20566;-53
2021/03/18 03:52:27;;;;;;;8.02;4.30;;;0.70;99.90;;;;;;5073547;28;20056;-55
2021/03/18 03:54:59;;;;;;;13.15;5.40;;;0.80;99.90;;;;;;5073471;28;20031;-52
2021/03/18 03:57:36;;;;;;;9.63;4.70;;;0.80;99.90;;;;;;5073692;28;20025;-54
2021/03/18 04:00:04;;;;;;;14.85;4.95;;;0.80;99.90;;;;;;5073572;28;20459;-51
2021/03/18 04:02:31;;;;;;;8.40;4.88;;;0.80;99.90;;;;;;5073327;28;20495;-50
2021/03/18 04:04:58;;;;;;;11.07;5.18;;;0.70;99.90;;;;;;5072908;28;20036;-54
2021/03/18 04:07:29;;;;;;;11.25;4.50;;;0.70;99.90;;;;;;5073357;28;20091;-53
2021/03/18 04:09:58;;;;;;;9.88;5.43;;;0.70;99.90;;;;;;5073255;28;20033;-52
2021/03/18 04:12:29;;;;;;;9.80;5.13;;;0.70;99.90;;;;;;5073247;28;20031;-50
2021/03/18 04:15:00;;;;;;;9.02;5.60;;;0.80;99.90;;;;;;5073027;28;20452;-53
2021/03/18 04:17:27;;;;;;;6.53;5.13;;;0.90;99.90;;;;;;5073083;28;20089;-51
2021/03/18 04:19:57;;;;;;;7.75;5.45;;;0.90;99.90;;;;;;5073001;28;20036;-51
2021/03/18 04:22:23;;;;;;;8.40;4.85;;;0.80;99.90;;;;;;5081978;28;20017;-49
2021/03/18 04:24:50;;;;;;;11.32;4.80;;;0.70;99.90;;;;;;5088934;28;20030;-50
2021/03/18 04:27:18;;;;;;;9.00;4.82;;;0.60;99.90;;;;;;5063637;28;20052;-53
2021/03/18 04:29:44;;;;;;;5.13;3.88;;;0.50;99.90;;;;;;5075809;28;20386;-54
2021/03/18 04:32:12;;;;;;;6.82;4.60;;;0.50;99.90;;;;;;5073115;28;20028;-50
2021/03/18 04:34:38;;;;;;;9.23;5.05;;;0.50;99.90;;;;;;5072716;28;20052;-50
2021/03/18 04:37:07;;;;;;;8.68;4.15;;;0.50;99.90;;;;;;5076736;28;20035;-51
2021/03/18 04:39:34;;;;;;;9.30;4.88;;;0.50;99.90;;;;;;5072284;28;20028;-52
2021/03/18 04:42:02;;;;;;;7.40;4.15;;;0.50;99.90;;;;;;5076866;28;20394;-55
2021/03/18 04:44:27;;;;;;;8.15;4.40;;;0.50;99.90;;;;;;5091443;28;20024;-53
2021/03/18 04:46:55;;;;;;;7.53;4.13;;;0.40;99.90;;;;;;5090972;28;20026;-52
2021/03/18 04:49:22;;;;;;;8.70;5.28;;;0.40;99.90;;;;;;5092783;28;20035;-51
2021/03/18 04:51:48;;;;;;;8.93;4.63;;;0.40;99.90;;;;;;5090307;28;20027;-54
2021/03/18 04:54:14;;;;;;;8.00;4.45;;;0.40;99.90;;;;;;5072208;28;20040;-53
2021/03/18 04:56:42;;;;;;;8.60;4.45;;;0.50;99.90;;;;;;5072726;28;20496;-51
2021/03/18 04:59:08;;;;;;;9.48;4.57;;;0.50;99.90;;;;;;5072273;28;20021;-51
2021/03/18 05:01:35;;;;;;;5.53;4.47;;;0.50;99.90;;;;;;5072269;28;20077;-52
2021/03/18 05:04:03;;;;;;;8.30;4.88;;;0.60;99.90;;;;;;5092193;28;20020;-50
2021/03/18 05:06:31;;;;;;;11.60;4.90;;;0.60;99.90;;;;;;5092044;28;20028;-50
2021/03/18 05:08:58;;;;;;;10.00;5.35;;;0.60;99.90;;;;;;5073961;28;20060;-53
2021/03/18 05:11:24;;;;;;;9.35;4.65;;;0.60;99.90;;;;;;5072367;28;20063;-55
2021/03/18 05:13:50;;;;;;;11.07;4.85;;;0.60;99.90;;;;;;5072624;28;20059;-53
2021/03/18 05:16:16;;;;;;;13.77;5.72;;;0.60;99.90;;;;;;5071982;28;20025;-54
2021/03/18 05:18:43;;;;;;;7.60;5.38;;;0.60;99.90;;;;;;5092307;28;20413;-49
2021/03/18 05:21:08;;;;;;;9.23;4.75;;;0.60;99.90;;;;;;5092331;28;20020;-48
2021/03/18 05:23:35;;;;;;;11.63;4.78;;;0.60;99.90;;;;;;5086770;28;20028;-50
2021/03/18 05:26:01;;;;;;;12.80;4.53;;;0.60;99.90;;;;;;5091946;28;20101;-52
2021/03/18 05:28:27;;;;;;;7.28;4.72;;;0.60;99.90;;;;;;5083574;28;20500;-50
2021/03/18 05:30:53;;;;;;;12.45;5.60;;;0.60;99.90;;;;;;5088178;28;20081;-51
2021/03/18 05:33:19;;;;;;;7.13;4.05;;;0.60;99.90;;;;;;5081151;28;20443;-48
2021/03/18 05:35:45;;;;;;;7.80;4.25;;;0.60;99.90;;;;;;5071499;28;20020;-51
2021/03/18 05:38:13;;;;;;;6.85;4.85;;;0.50;99.90;;;;;;5071893;28;20028;-50
2021/03/18 05:40:39;;;;;;;6.03;4.53;;;0.60;99.90;;;;;;5071519;28;20025;-49
2021/03/18 05:43:05;;;;;;;11.55;5.40;;;0.50;99.90;;;;;;5072109;28;20033;-49
2021/03/18 05:45:31;;;;;;;14.50;4.35;;;0.50;99.90;;;;;;5086244;28;20028;-49
2021/03/18 05:47:58;;;;;;;6.43;4.32;;;0.50;99.90;;;;;;5091355;28;20154;-53
2021/03/18 05:50:25;;;;;;;8.95;4.60;;;0.50;99.90;;;;;;5080583;28;20398;-49
2021/03/18 05:52:51;;;;;;;8.10;5.40;;;0.50;99.90;;;;;;5093684;28;20036;-53
2021/03/18 05:55:23;;;;;;;10.02;5.20;;;0.50;99.90;;;;;;5092620;28;20028;-47
2021/03/18 05:57:52;;;;;;;8.60;5.10;;;0.50;99.90;;;;;;5092020;28;20020;-51
2021/03/18 06:00:18;;;;;;;15.10;5.38;;;0.60;99.90;;;;;;5092178;28;20113;-53
2021/03/18 06:02:44;;;;;;;9.10;5.47;;;0.70;99.90;;;;;;5091774;28;20020;-52
2021/03/18 06:05:12;;;;;;;6.82;5.10;;;0.70;99.90;;;;;;5091438;28;20564;-51
2021/03/18 06:07:39;;;;;;;9.73;4.75;;;0.70;99.90;;;;;;5091453;28;20081;-51
2021/03/18 06:10:10;;;;;;;10.82;5.00;;;0.80;99.90;;;;;;5091221;28;20028;-49
2021/03/18 06:12:37;;;;;;;9.38;5.55;;;0.80;99.90;;;;;;5091156;28;20089;-50
2021/03/18 06:15:06;;;;;;;9.25;5.60;;;0.80;99.90;;;;;;5091025;28;20062;-53
2021/03/18 06:17:33;;;;;;;9.35;6.22;;;0.80;99.90;;;;;;5090956;28;20024;-52
2021/03/18 06:19:59;;;;;;;10.88;5.18;;;0.90;99.90;;;;;;5090846;28;20500;-51
2021/03/18 06:22:55;;;;;;;10.10;5.68;;;1.00;99.90;;;;;;5090926;28;20036;-49
2021/03/18 06:25:25;;;;;;;9.68;5.65;;;1.10;99.90;;;;;;5069466;28;20471;-57
2021/03/18 06:28:23;;;;;;;19.40;6.07;;;1.30;99.90;;;;;;5090804;28;20024;-51
2021/03/18 06:31:01;;;;;;;13.77;5.90;;;1.80;99.90;;;;;;5072558;28;20020;-53
2021/03/18 06:33:30;;;;;;;14.85;5.43;;;2.20;99.90;;;;;;5090904;28;20397;-51
2021/03/18 06:35:57;;;;;;;10.50;5.95;;;2.30;99.90;;;;;;5090698;28;20285;-52
2021/03/18 06:38:30;;;;;;;11.60;5.40;;;2.30;99.90;;;;;;5090700;28;20028;-52
2021/03/18 06:40:57;;;;;;;19.88;5.82;;;2.50;99.90;;;;;;5090641;28;20094;-47
2021/03/18 06:43:43;;;;;;;14.05;6.07;;;2.60;99.90;;;;;;5090120;28;20013;-54
2021/03/18 06:46:21;;;;;;;9.55;5.43;;;2.80;99.90;;;;;;5089597;28;20028;-53
2021/03/18 06:48:48;;;;;;;11.80;5.32;;;3.10;99.90;;;;;;5090527;28;20499;-50
2021/03/18 06:51:21;;;;;;;9.45;4.78;;;3.60;99.90;;;;;;5088998;28;20032;-51
2021/03/18 06:53:48;;;;;;;6.75;4.57;;;4.00;99.20;;;;;;5069996;28;20024;-53
2021/03/18 06:56:26;;;;;;;11.05;5.10;;;4.40;97.90;;;;;;5074368;28;20059;-54
2021/03/18 06:58:51;;;;;;;8.40;5.03;;;4.80;98.20;;;;;;5072441;28;20404;-53
2021/03/18 07:01:23;;;;;;;8.82;5.45;;;5.20;97.10;;;;;;5070152;28;20037;-53
2021/03/18 07:03:49;;;;;;;9.55;5.07;;;5.60;96.10;;;;;;5071072;28;20023;-51
2021/03/18 07:06:41;;;;;;;11.68;5.00;;;5.90;95.60;;;;;;5072762;28;20690;-51
2021/03/18 07:09:11;;;;;;;10.52;6.00;;;6.10;94.90;;;;;;5084296;28;20040;-54
2021/03/18 07:11:44;;;;;;;11.45;7.45;;;6.10;95.50;;;;;;5097248;28;20103;-51
2021/03/18 07:14:11;;;;;;;12.45;7.57;;;6.40;95.30;;;;;;5094859;28;20550;-52
2021/03/18 07:16:45;;;;;;;11.43;5.72;;;6.80;94.30;;;;;;5096897;28;20024;-53
2021/03/18 07:19:23;;;;;;;9.88;5.35;;;7.30;93.70;;;;;;5085271;28;20032;-56
2021/03/18 07:21:49;;;;;;;11.55;5.45;;;7.60;92.70;;;;;;5076792;28;20024;-52
2021/03/18 07:24:21;;;;;;;10.25;4.72;;;7.90;92.70;;;;;;5077670;28;20023;-52
2021/03/18 07:26:47;;;;;;;5.50;4.60;;;8.00;92.60;;;;;;5076539;28;20350;-53
2021/03/18 07:29:19;;;;;;;10.25;4.38;;;8.00;91.90;;;;;;5076930;28;20029;-52
2021/03/18 07:31:45;;;;;;;6.10;5.10;;;7.60;90.90;;;;;;5076577;28;20024;-53
2021/03/18 07:34:13;;;;;;;10.77;7.45;;;7.20;92.10;;;;;;5087038;28;20042;-51
2021/03/18 07:36:39;;;;;;;9.40;6.97;;;6.80;93.10;;;;;;5090424;28;20106;-46
2021/03/18 07:39:06;;;;;;;9.07;5.80;;;6.50;94.30;;;;;;5097848;28;20054;-46
2021/03/18 07:41:33;;;;;;;13.13;5.95;;;6.50;94.90;;;;;;5090663;28;20088;-52
2021/03/18 07:43:59;;;;;;;17.73;8.02;;;7.00;94.50;;;;;;5077201;28;20032;-51
2021/03/18 07:46:26;;;;;;;8.85;5.32;;;7.60;92.50;;;;;;5089203;28;20082;-49
2021/03/18 07:48:59;;;;;;;9.25;5.70;;;7.60;91.60;;;;;;5096747;28;20028;-51
2021/03/18 07:51:26;;;;;;;12.23;5.93;;;7.30;91.70;;;;;;5096950;28;20032;-46
2021/03/18 07:53:58;;;;;;;6.97;5.07;;;7.10;91.90;;;;;;5096082;28;20389;-51
2021/03/18 07:56:24;;;;;;;8.57;5.30;;;6.80;93.20;;;;;;5080158;28;20024;-53
2021/03/18 07:58:50;;;;;;;12.15;5.57;;;6.50;93.70;;;;;;5094020;28;20043;-54
2021/03/18 08:01:28;;;;;;;14.15;6.03;;;6.20;94.40;;;;;;5081149;28;20035;-51
2021/03/18 08:03:54;;;;;;;7.80;4.85;;;5.90;95.40;;;;;;5076166;28;20020;-52
2021/03/18 08:06:44;;;;;;;12.73;6.07;;;5.60;95.90;;;;;;5087840;28;20499;-52
2021/03/18 08:09:16;;;;;;;12.90;6.53;;;5.40;95.90;;;;;;5096422;28;20062;-48
2021/03/18 08:11:47;;;;;;;8.60;5.70;;;5.30;96.20;;;;;;5093784;28;20095;-49
2021/03/18 08:14:13;;;;;;;11.45;5.75;;;5.20;95.80;;;;;;5088060;28;20021;-49
2021/03/18 08:16:39;;;;;;;9.30;5.45;;;5.10;96.70;;;;;;5077528;28;20150;-50
2021/03/18 08:19:11;;;;;;;8.80;5.38;;;5.20;96.40;;;;;;5086818;28;20093;-53
2021/03/18 08:21:45;;;;;;;12.05;6.30;;;5.10;96.90;;;;;;5084802;28;20035;-51
2021/03/18 08:24:17;;;;;;;9.95;6.47;;;5.10;97.00;;;;;;5074772;28;20020;-52
2021/03/18 08:26:48;;;;;;;10.05;6.10;;;5.10;96.80;;;;;;5093072;28;20103;-50
2021/03/18 08:29:17;;;;;;;10.40;5.50;;;5.10;96.80;;;;;;5093047;28;20404;-52
2021/03/18 08:31:58;;;;;;;13.93;6.05;;;5.10;96.90;;;;;;5074799;28;20024;-52
2021/03/18 08:34:50;;;;;;;13.57;5.55;;;5.30;96.70;;;;;;5092890;28;20024;-51
2021/03/18 08:37:31;;;;;;;14.52;5.93;;;5.50;96.90;;;;;;5092788;28;20021;-50
2021/03/18 08:39:57;;;;;;;9.70;4.72;;;5.70;96.40;;;;;;5093023;28;20031;-50
2021/03/18 08:42:29;;;;;;;9.85;5.28;;;5.80;96.00;;;;;;5093073;28;20020;-51
2021/03/18 08:44:59;;;;;;;10.18;6.70;;;5.90;96.10;;;;;;5092845;28;20099;-49
2021/03/18 08:48:01;;;;;;;8.82;4.93;;;6.10;95.50;;;;;;5092543;28;20016;-50
2021/03/18 08:50:26;;;;;;;8.73;5.53;;;6.20;95.50;;;;;;5081624;28;20063;-53
2021/03/18 08:52:53;;;;;;;8.82;5.10;;;6.20;95.00;;;;;;5092599;28;20057;-51
2021/03/18 08:55:34;;;;;;;9.75;4.90;;;6.20;95.00;;;;;;5092745;28;20452;-51
2021/03/18 08:58:00;;;;;;;9.35;5.38;;;6.30;95.20;;;;;;5092577;28;20457;-50
2021/03/18 09:00:26;;;;;;;14.40;5.47;;;6.30;95.00;;;;;;5092439;28;20031;-49
2021/03/18 09:02:51;;;;;;;6.85;4.30;;;6.40;94.80;;;;;;5092108;28;20397;-50
2021/03/18 09:05:19;;;;;;;10.30;4.97;;;6.30;94.90;;;;;;5092293;28;20028;-49
2021/03/18 09:07:46;;;;;;;10.77;4.60;;;6.30;95.40;;;;;;5092384;28;20028;-51
2021/03/18 09:10:19;;;;;;;9.75;4.35;;;6.60;95.20;;;;;;5092295;28;20031;-50
2021/03/18 09:12:49;;;;;;;13.50;5.00;;;7.60;93.80;;;;;;5092017;28;20161;-52
2021/03/18 09:15:24;;;;;;;8.85;4.28;;;9.20;90.50;;;;;;5091969;28;20051;-49
2021/03/18 09:17:52;;;;;;;4.50;4.10;;;11.00;83.00;;;;;;5089877;28;20023;-54
2021/03/18 09:20:21;;;;;;;7.32;4.03;;;12.50;75.90;;;;;;5087282;28;20024;-55
2021/03/18 09:22:47;;;;;;;10.45;4.38;;;13.90;68.50;;;;;;5084764;28;20051;-55
2021/03/18 09:25:14;;;;;;;7.50;4.03;;;14.90;60.70;;;;;;5083084;28;20102;-57
2021/03/18 09:27:43;;;;;;;6.35;3.22;;;15.80;58.00;;;;;;5071766;28;20025;-54
2021/03/18 09:30:28;;;;;;;5.05;3.58;;;16.50;53.90;;;;;;5076990;28;20088;-56
2021/03/18 09:32:54;;;;;;;8.93;3.47;;;17.30;50.80;;;;;;5091641;28;20020;-54
2021/03/18 09:35:20;;;;;;;4.95;3.47;;;17.50;50.10;;;;;;5082977;28;20044;-55
2021/03/18 09:37:47;;;;;;;7.00;3.75;;;17.60;48.00;;;;;;5072644;28;20078;-54
2021/03/18 09:40:15;;;;;;;10.23;3.47;;;17.80;47.60;;;;;;5071304;28;20029;-55
2021/03/18 09:42:41;;;;;;;4.75;3.45;;;17.80;46.40;;;;;;5071283;28;20147;-52
2021/03/18 09:45:08;;;;;;;9.68;3.78;;;17.50;47.30;;;;;;5071189;28;20078;-56
2021/03/18 09:47:36;;;;;;;5.68;3.90;;;17.20;48.20;;;;;;5072289;28;20056;-56
2021/03/18 09:50:03;;;;;;;10.02;3.63;;;17.20;48.20;;;;;;5071059;28;20029;-56
2021/03/18 09:52:29;;;;;;;10.00;4.50;;;17.10;49.20;;;;;;5053361;28;20078;-51
2021/03/18 09:54:56;;;;;;;5.15;4.03;;;16.60;49.40;;;;;;5071016;28;20025;-56
2021/03/18 09:57:26;;;;;;;5.90;4.35;;;15.90;50.80;;;;;;5071716;28;20413;-54
2021/03/18 09:59:53;;;;;;;12.88;4.57;;;14.70;52.40;;;;;;5071014;28;20028;-54
2021/03/18 10:02:28;;;;;;;8.82;4.57;;;14.00;54.40;;;;;;5074762;28;20035;-52
2021/03/18 10:04:54;;;;;;;9.52;5.03;;;13.30;57.00;;;;;;5089923;28;20028;-54
2021/03/18 10:07:29;;;;;;;13.63;4.68;;;12.80;58.50;;;;;;5091193;28;20024;-53
2021/03/18 10:09:54;;;;;;;11.35;4.20;;;12.60;59.00;;;;;;5093344;28;20028;-51
2021/03/18 10:12:22;;;;;;;5.57;4.40;;;12.90;59.40;;;;;;5091309;28;20491;-55
2021/03/18 10:14:54;;;;;;;9.23;4.35;;;13.10;55.40;;;;;;5090698;28;20103;-54
2021/03/18 10:17:24;;;;;;;7.38;4.32;;;13.30;54.60;;;;;;5091131;28;20020;-55
2021/03/18 10:20:08;;;;;;;7.18;4.18;;;12.90;54.30;;;;;;5092096;28;20486;-53
2021/03/18 10:22:37;;;;;;;7.68;4.25;;;12.00;56.70;;;;;;5090531;28;20024;-56
2021/03/18 10:25:14;;;;;;;10.60;4.65;;;11.60;58.00;;;;;;5090601;28;20024;-54
2021/03/18 10:27:43;;;;;;;8.77;4.95;;;11.20;58.80;;;;;;5090669;28;20407;-55
2021/03/18 10:30:11;;;;;;;5.80;4.20;;;10.90;60.50;;;;;;5090438;28;20016;-53
2021/03/18 10:32:38;;;;;;;5.03;4.07;;;10.30;61.70;;;;;;5090438;28;20043;-54
2021/03/18 10:35:06;;;;;;;11.68;4.28;;;10.30;64.90;;;;;;5090484;28;20028;-53
2021/03/18 10:37:42;;;;;;;8.77;4.70;;;10.30;63.20;;;;;;5082513;28;20016;-52
2021/03/18 10:40:25;;;;;;;11.52;4.70;;;10.20;64.10;;;;;;5069803;28;20394;-45
2021/03/18 10:42:53;;;;;;;8.75;5.10;;;10.00;64.50;;;;;;5072449;28;20036;-54
2021/03/18 10:45:25;;;;;;;8.75;4.43;;;9.70;66.50;;;;;;5075446;28;20116;-50
2021/03/18 10:47:54;;;;;;;7.55;4.40;;;9.70;67.90;;;;;;5072358;28;20055;-52
2021/03/18 10:50:23;;;;;;;8.23;4.15;;;9.80;69.00;;;;;;5081843;28;20024;-50
2021/03/18 10:53:03;;;;;;;9.57;5.07;;;10.00;69.90;;;;;;5087888;28;20020;-54
2021/03/18 10:55:32;;;;;;;9.00;4.40;;;10.10;70.00;;;;;;5070083;28;20028;-56
2021/03/18 10:58:01;;;;;;;5.95;4.45;;;10.20;68.80;;;;;;5075139;28;20024;-52
2021/03/18 11:00:29;;;;;;;6.20;4.35;;;9.90;64.90;;;;;;5086617;28;20024;-56
2021/03/18 11:02:59;;;;;;;6.22;3.58;;;9.80;65.80;;;;;;5085405;28;20020;-51
2021/03/18 11:05:29;;;;;;;8.00;4.53;;;9.80;66.80;;;;;;5090075;28;20510;-53
2021/03/18 11:07:56;;;;;;;10.68;4.60;;;9.80;65.30;;;;;;5089343;28;20381;-56
2021/03/18 11:10:35;;;;;;;5.68;4.13;;;9.80;67.10;;;;;;5085609;28;20460;-54
2021/03/18 11:13:04;;;;;;;12.20;4.25;;;9.80;67.60;;;;;;5073067;28;20033;-56
2021/03/18 11:16:03;;;;;;;7.35;4.22;;;9.80;66.80;;;;;;5078130;28;20020;-53
2021/03/18 11:18:44;;;;;;;6.50;4.03;;;9.90;64.30;;;;;;5056500;28;20121;-53
2021/03/18 11:21:26;;;;;;;6.15;4.72;;;9.80;65.20;;;;;;5089513;28;20028;-56
2021/03/18 11:24:02;;;;;;;5.05;3.80;;;9.50;66.40;;;;;;5088794;28;20386;-55
2021/03/18 11:26:28;;;;;;;8.80;4.15;;;9.50;67.00;;;;;;5090061;28;20059;-53
2021/03/18 11:29:00;;;;;;;6.85;5.30;;;9.50;65.40;;;;;;5089805;28;20085;-52
2021/03/18 11:31:28;;;;;;;6.05;4.20;;;9.50;66.00;;;;;;5090324;28;20020;-53
2021/03/18 11:33:54;;;;;;;4.97;4.45;;;9.50;67.20;;;;;;5090304;28;20047;-50
2021/03/18 11:36:20;;;;;;;7.82;4.32;;;9.40;65.50;;;;;;5090477;28;20036;-49
2021/03/18 11:38:47;;;;;;;5.80;4.18;;;9.50;67.50;;;;;;5090376;28;20028;-51
2021/03/18 11:41:13;;;;;;;8.25;3.92;;;9.60;65.80;;;;;;5090239;28;20024;-53
2021/03/18 11:43:38;;;;;;;7.30;4.00;;;9.50;64.40;;;;;;5090338;28;20389;-49
2021/03/18 11:46:05;;;;;;;7.18;4.50;;;9.30;65.30;;;;;;5090413;28;20027;-49
2021/03/18 11:48:30;;;;;;;6.75;4.28;;;9.20;65.60;;;;;;5090278;28;20024;-53
2021/03/18 11:50:57;;;;;;;5.43;4.22;;;9.20;67.10;;;;;;5090378;28;20082;-51
2021/03/18 11:53:23;;;;;;;5.63;4.30;;;9.20;69.00;;;;;;5092851;28;20031;-49
2021/03/18 11:55:50;;;;;;;6.60;4.60;;;9.20;69.10;;;;;;5094115;28;20059;-50
2021/03/18 11:58:15;;;;;;;8.38;4.70;;;9.10;69.20;;;;;;5094065;28;20073;-52
2021/03/18 12:00:41;;;;;;;8.30;5.13;;;9.10;69.90;;;;;;5094065;28;20024;-51
2021/03/18 12:03:09;;;;;;;7.90;4.43;;;9.10;70.50;;;;;;5093466;28;20031;-49
2021/03/18 12:05:36;;;;;;;8.65;4.32;;;9.10;69.40;;;;;;5092141;28;20123;-49
2021/03/18 12:08:03;;;;;;;9.32;4.28;;;9.00;68.80;;;;;;5092111;28;20039;-51
2021/03/18 12:10:29;;;;;;;5.07;4.45;;;9.10;71.70;;;;;;5093204;28;20032;-52
2021/03/18 12:12:55;;;;;;;8.18;4.18;;;9.20;72.80;;;;;;5074940;28;20035;-51
2021/03/18 12:15:21;;;;;;;9.25;5.10;;;9.40;69.80;;;;;;5093637;28;20354;-52
2021/03/18 12:17:46;;;;;;;8.10;4.55;;;9.50;68.50;;;;;;5093472;28;20016;-52
2021/03/18 12:20:18;;;;;;;8.63;5.28;;;9.50;68.50;;;;;;5092828;28;20024;-50
2021/03/18 12:22:44;;;;;;;6.85;4.50;;;9.60;66.90;;;;;;5093214;28;20024;-52
2021/03/18 12:25:11;;;;;;;6.53;4.47;;;9.40;67.30;;;;;;5093453;28;20512;-54
2021/03/18 12:27:37;;;;;;;7.00;4.72;;;9.20;68.00;;;;;;5093011;28;20481;-50
2021/03/18 12:30:09;;;;;;;10.38;4.68;;;8.90;68.10;;;;;;5074326;28;20024;-51
2021/03/18 12:32:35;;;;;;;13.85;7.25;;;8.50;69.00;;;;;;5092935;28;20028;-49
2021/03/18 12:35:02;;;;;;;10.27;6.57;;;8.00;81.80;;;;;;5092789;28;20032;-52
2021/03/18 12:37:27;;;;;;;10.52;6.80;;;7.80;90.10;;;;;;5093009;28;20385;-50
2021/03/18 12:39:53;;;;;;;7.88;6.38;;;7.60;92.00;;;;;;5092605;28;20031;-49
2021/03/18 12:42:18;;;;;;;10.57;6.57;;;7.40;93.50;;;;;;5092943;28;20095;-49
2021/03/18 12:44:44;;;;;;;10.25;6.88;;;7.20;94.50;;;;;;5092579;28;20722;-53
2021/03/18 12:47:10;;;;;;;7.32;6.40;;;7.00;96.20;;;;;;5092868;28;20024;-50
2021/03/18 12:49:37;;;;;;;13.05;7.15;;;6.90;97.40;;;;;;5092395;28;20024;-52
2021/03/18 12:52:06;;;;;;;8.27;6.35;;;7.20;98.20;;;;;;5092623;28;20533;-50
2021/03/18 12:54:35;;;;;;;8.55;5.57;;;7.20;98.00;;;;;;5092276;28;20421;-52
2021/03/18 12:57:00;;;;;;;8.63;6.00;;;7.30;96.20;;;;;;5092359;28;20020;-50
2021/03/18 12:59:26;;;;;;;9.10;6.25;;;7.50;96.70;;;;;;5092541;28;20031;-51
2021/03/18 13:01:52;;;;;;;9.43;6.68;;;7.70;96.40;;;;;;5074331;28;20031;-50
2021/03/18 13:04:17;;;;;;;7.28;5.95;;;7.90;96.80;;;;;;5091412;28;20024;-49